sensor_id;sensor_type;location;lat;lon;timestamp;pressure;altitude;pressure_sealevel;temperature;humidity
80397;BME280;69721;55.894;-3.052;2024-03-02T00:01:27;98758.05;;;0.63;80.22
80397;BME280;69721;55.894;-3.052;2024-03-02T00:03:52;98745.73;;;1.73;78.34
80397;BME280;69721;55.894;-3.052;2024-03-02T00:06:20;98750.07;;;1.45;77.24
80397;BME280;69721;55.894;-3.052;2024-03-02T00:08:44;98746.52;;;1.84;76.41
80397;BME280;69721;55.894;-3.052;2024-03-02T00:11:09;98750.23;;;0.70;79.77
80397;BME280;69721;55.894;-3.052;2024-03-02T00:13:35;98744.65;;;0.91;78.90
80397;BME280;69721;55.894;-3.052;2024-03-02T00:16:00;98745.36;;;1.70;76.53
80397;BME280;69721;55.894;-3.052;2024-03-02T00:18:30;98750.67;;;1.25;77.01
80397;BME280;69721;55.894;-3.052;2024-03-02T00:20:57;98749.60;;;1.41;77.53
80397;BME280;69721;55.894;-3.052;2024-03-02T00:23:18;98749.13;;;1.33;77.57
80397;BME280;69721;55.894;-3.052;2024-03-02T00:25:44;98761.90;;;0.52;78.46
80397;BME280;69721;55.894;-3.052;2024-03-02T00:28:16;98755.79;;;0.14;81.10
80397;BME280;69721;55.894;-3.052;2024-03-02T00:30:49;98756.58;;;0.24;82.06
80397;BME280;69721;55.894;-3.052;2024-03-02T00:32:59;98749.34;;;1.07;80.13
80397;BME280;69721;55.894;-3.052;2024-03-02T00:35:25;98761.49;;;0.13;80.01
80397;BME280;69721;55.894;-3.052;2024-03-02T00:37:51;98751.39;;;0.91;78.99
80397;BME280;69721;55.894;-3.052;2024-03-02T00:40:17;98751.64;;;1.15;78.74
80397;BME280;69721;55.894;-3.052;2024-03-02T00:42:42;98761.95;;;0.62;79.54
80397;BME280;69721;55.894;-3.052;2024-03-02T00:45:08;98762.00;;;0.75;80.56
80397;BME280;69721;55.894;-3.052;2024-03-02T00:47:37;98749.52;;;0.92;77.76
80397;BME280;69721;55.894;-3.052;2024-03-02T00:49:58;98754.13;;;0.68;79.67
80397;BME280;69721;55.894;-3.052;2024-03-02T00:52:24;98754.46;;;1.52;77.76
80397;BME280;69721;55.894;-3.052;2024-03-02T00:54:50;98745.98;;;1.78;76.11
80397;BME280;69721;55.894;-3.052;2024-03-02T00:59:41;98751.29;;;1.65;76.87
80397;BME280;69721;55.894;-3.052;2024-03-02T01:02:06;98753.72;;;1.18;77.72
80397;BME280;69721;55.894;-3.052;2024-03-02T01:04:32;98754.90;;;0.75;79.89
80397;BME280;69721;55.894;-3.052;2024-03-02T01:06:58;98754.99;;;1.23;78.88
80397;BME280;69721;55.894;-3.052;2024-03-02T01:09:24;98755.05;;;1.33;77.93
80397;BME280;69721;55.894;-3.052;2024-03-02T01:11:50;98763.21;;;0.67;79.61
80397;BME280;69721;55.894;-3.052;2024-03-02T01:14:15;98767.38;;;0.74;81.46
80397;BME280;69721;55.894;-3.052;2024-03-02T01:16:41;98773.46;;;0.70;81.27
80397;BME280;69721;55.894;-3.052;2024-03-02T01:19:06;98758.22;;;1.70;78.75
80397;BME280;69721;55.894;-3.052;2024-03-02T01:21:32;98758.40;;;0.97;78.42
80397;BME280;69721;55.894;-3.052;2024-03-02T01:23:58;98761.78;;;1.20;77.26
80397;BME280;69721;55.894;-3.052;2024-03-02T01:26:25;98766.00;;;0.93;78.33
80397;BME280;69721;55.894;-3.052;2024-03-02T01:28:50;98765.51;;;0.80;79.54
80397;BME280;69721;55.894;-3.052;2024-03-02T01:31:16;98766.42;;;0.73;79.26
80397;BME280;69721;55.894;-3.052;2024-03-02T01:33:42;98751.38;;;1.77;76.75
80397;BME280;69721;55.894;-3.052;2024-03-02T01:36:07;98762.91;;;1.06;78.12
80397;BME280;69721;55.894;-3.052;2024-03-02T01:38:33;98762.31;;;1.38;78.40
80397;BME280;69721;55.894;-3.052;2024-03-02T01:40:58;98759.21;;;1.01;78.27
80397;BME280;69721;55.894;-3.052;2024-03-02T01:43:24;98755.09;;;1.39;76.91
80397;BME280;69721;55.894;-3.052;2024-03-02T01:45:50;98757.53;;;0.85;77.67
80397;BME280;69721;55.894;-3.052;2024-03-02T01:48:15;98759.55;;;1.09;79.01
80397;BME280;69721;55.894;-3.052;2024-03-02T01:50:41;98757.90;;;0.75;80.11
80397;BME280;69721;55.894;-3.052;2024-03-02T01:53:07;98753.08;;;0.30;81.50
80397;BME280;69721;55.894;-3.052;2024-03-02T01:55:32;98754.29;;;0.61;80.06
80397;BME280;69721;55.894;-3.052;2024-03-02T01:57:58;98753.59;;;0.52;81.20
80397;BME280;69721;55.894;-3.052;2024-03-02T02:00:23;98745.53;;;0.59;79.49
80397;BME280;69721;55.894;-3.052;2024-03-02T02:02:49;98746.86;;;0.17;83.26
80397;BME280;69721;55.894;-3.052;2024-03-02T02:05:14;98749.49;;;0.51;83.34
80397;BME280;69721;55.894;-3.052;2024-03-02T02:10:06;98740.43;;;0.66;80.76
80397;BME280;69721;55.894;-3.052;2024-03-02T02:12:31;98740.11;;;0.65;79.98
80397;BME280;69721;55.894;-3.052;2024-03-02T02:14:57;98736.87;;;0.89;79.02
80397;BME280;69721;55.894;-3.052;2024-03-02T02:17:22;98738.86;;;1.17;78.57
80397;BME280;69721;55.894;-3.052;2024-03-02T02:19:48;98731.77;;;1.28;78.07
80397;BME280;69721;55.894;-3.052;2024-03-02T02:22:13;98728.05;;;1.78;78.54
80397;BME280;69721;55.894;-3.052;2024-03-02T02:24:40;98729.61;;;1.15;78.99
80397;BME280;69721;55.894;-3.052;2024-03-02T02:27:05;98725.58;;;1.31;78.65
80397;BME280;69721;55.894;-3.052;2024-03-02T02:29:30;98735.23;;;0.69;79.79
80397;BME280;69721;55.894;-3.052;2024-03-02T02:31:56;98742.89;;;0.93;80.81
80397;BME280;69721;55.894;-3.052;2024-03-02T02:34:21;98741.53;;;0.60;82.19
80397;BME280;69721;55.894;-3.052;2024-03-02T02:36:47;98739.56;;;0.44;81.68
80397;BME280;69721;55.894;-3.052;2024-03-02T02:39:15;98738.70;;;0.93;81.22
80397;BME280;69721;55.894;-3.052;2024-03-02T02:41:38;98742.94;;;1.36;78.34
80397;BME280;69721;55.894;-3.052;2024-03-02T02:44:04;98739.54;;;2.30;73.82
80397;BME280;69721;55.894;-3.052;2024-03-02T02:46:29;98734.94;;;0.96;74.82
80397;BME280;69721;55.894;-3.052;2024-03-02T02:48:55;98733.65;;;2.01;73.29
80397;BME280;69721;55.894;-3.052;2024-03-02T02:51:21;98733.49;;;2.68;71.33
80397;BME280;69721;55.894;-3.052;2024-03-02T02:53:46;98733.50;;;2.57;70.34
80397;BME280;69721;55.894;-3.052;2024-03-02T02:56:12;98732.66;;;1.52;72.90
80397;BME280;69721;55.894;-3.052;2024-03-02T02:58:40;98723.06;;;3.69;67.24
80397;BME280;69721;55.894;-3.052;2024-03-02T03:01:04;98724.38;;;3.24;66.64
80397;BME280;69721;55.894;-3.052;2024-03-02T03:03:29;98720.33;;;3.00;67.09
80397;BME280;69721;55.894;-3.052;2024-03-02T03:05:55;98718.48;;;3.85;65.45
80397;BME280;69721;55.894;-3.052;2024-03-02T03:08:20;98716.18;;;3.82;64.41
80397;BME280;69721;55.894;-3.052;2024-03-02T03:10:46;98709.20;;;4.76;61.78
80397;BME280;69721;55.894;-3.052;2024-03-02T03:13:11;98703.56;;;5.57;60.23
80397;BME280;69721;55.894;-3.052;2024-03-02T03:15:38;98706.19;;;6.09;57.52
80397;BME280;69721;55.894;-3.052;2024-03-02T03:20:28;98706.17;;;7.40;56.31
80397;BME280;69721;55.894;-3.052;2024-03-02T03:22:54;98706.83;;;7.41;54.68
80397;BME280;69721;55.894;-3.052;2024-03-02T03:25:19;98700.40;;;7.76;54.79
80397;BME280;69721;55.894;-3.052;2024-03-02T03:27:45;98697.66;;;8.69;52.21
80397;BME280;69721;55.894;-3.052;2024-03-02T03:30:11;98687.62;;;9.27;51.50
80397;BME280;69721;55.894;-3.052;2024-03-02T03:32:36;98688.44;;;9.84;49.52
80397;BME280;69721;55.894;-3.052;2024-03-02T03:35:01;98691.45;;;9.51;49.29
80397;BME280;69721;55.894;-3.052;2024-03-02T03:37:27;98692.62;;;9.67;48.58
80397;BME280;69721;55.894;-3.052;2024-03-02T03:39:52;98691.04;;;9.55;49.27
80397;BME280;69721;55.894;-3.052;2024-03-02T03:42:18;98692.87;;;9.53;49.72
80397;BME280;69721;55.894;-3.052;2024-03-02T03:44:44;98690.84;;;9.65;48.57
80397;BME280;69721;55.894;-3.052;2024-03-02T03:47:09;98688.83;;;9.63;49.15
80397;BME280;69721;55.894;-3.052;2024-03-02T03:49:35;98688.97;;;8.93;49.14
80397;BME280;69721;55.894;-3.052;2024-03-02T03:52:00;98688.13;;;9.53;48.97
80397;BME280;69721;55.894;-3.052;2024-03-02T03:54:26;98692.57;;;9.73;48.98
80397;BME280;69721;55.894;-3.052;2024-03-02T03:56:51;98699.74;;;9.08;48.90
80397;BME280;69721;55.894;-3.052;2024-03-02T03:59:17;98700.83;;;9.18;48.94
80397;BME280;69721;55.894;-3.052;2024-03-02T04:01:43;98706.25;;;8.55;49.95
80397;BME280;69721;55.894;-3.052;2024-03-02T04:04:09;98706.54;;;8.49;50.27
80397;BME280;69721;55.894;-3.052;2024-03-02T04:06:34;98707.53;;;8.91;49.65
80397;BME280;69721;55.894;-3.052;2024-03-02T04:09:00;98708.91;;;9.06;49.92
80397;BME280;69721;55.894;-3.052;2024-03-02T04:11:25;98710.60;;;9.12;49.43
80397;BME280;69721;55.894;-3.052;2024-03-02T04:13:51;98709.16;;;9.46;48.64
80397;BME280;69721;55.894;-3.052;2024-03-02T04:16:17;98710.28;;;9.20;49.17
80397;BME280;69721;55.894;-3.052;2024-03-02T04:18:42;98720.56;;;9.29;48.92
80397;BME280;69721;55.894;-3.052;2024-03-02T04:21:08;98725.95;;;8.98;49.11
80397;BME280;69721;55.894;-3.052;2024-03-02T04:23:33;98730.05;;;9.28;48.40
80397;BME280;69721;55.894;-3.052;2024-03-02T04:25:58;98733.84;;;8.84;48.54
80397;BME280;69721;55.894;-3.052;2024-03-02T04:30:49;98731.44;;;7.90;48.22
80397;BME280;69721;55.894;-3.052;2024-03-02T04:33:15;98728.29;;;8.62;47.74
80397;BME280;69721;55.894;-3.052;2024-03-02T04:35:41;98736.72;;;8.83;47.40
80397;BME280;69721;55.894;-3.052;2024-03-02T04:38:07;98739.84;;;8.18;47.99
80397;BME280;69721;55.894;-3.052;2024-03-02T04:40:32;98738.65;;;8.21;47.95
80397;BME280;69721;55.894;-3.052;2024-03-02T04:42:58;98734.98;;;8.14;47.51
80397;BME280;69721;55.894;-3.052;2024-03-02T04:45:24;98739.59;;;7.92;47.89
80397;BME280;69721;55.894;-3.052;2024-03-02T04:47:48;98739.83;;;8.04;47.59
80397;BME280;69721;55.894;-3.052;2024-03-02T04:50:14;98739.03;;;7.29;48.81
80397;BME280;69721;55.894;-3.052;2024-03-02T04:52:40;98748.22;;;5.98;51.56
80397;BME280;69721;55.894;-3.052;2024-03-02T04:55:05;98744.30;;;5.56;53.46
80397;BME280;69721;55.894;-3.052;2024-03-02T04:57:30;98744.34;;;4.72;53.59
80397;BME280;69721;55.894;-3.052;2024-03-02T04:59:56;98744.78;;;3.75;57.19
80397;BME280;69721;55.894;-3.052;2024-03-02T05:02:21;98744.43;;;3.94;55.95
80397;BME280;69721;55.894;-3.052;2024-03-02T05:04:47;98740.82;;;5.67;52.97
80397;BME280;69721;55.894;-3.052;2024-03-02T05:07:14;98742.12;;;5.30;52.40
80397;BME280;69721;55.894;-3.052;2024-03-02T05:09:40;98742.88;;;4.94;52.46
80397;BME280;69721;55.894;-3.052;2024-03-02T05:12:06;98754.08;;;3.78;56.10
80397;BME280;69721;55.894;-3.052;2024-03-02T05:14:31;98757.36;;;3.27;56.39
80397;BME280;69721;55.894;-3.052;2024-03-02T05:16:57;98758.13;;;2.35;59.84
80397;BME280;69721;55.894;-3.052;2024-03-02T05:19:22;98763.01;;;2.20;61.90
80397;BME280;69721;55.894;-3.052;2024-03-02T05:21:48;98765.25;;;1.74;61.20
80397;BME280;69721;55.894;-3.052;2024-03-02T05:24:14;98763.17;;;3.54;57.80
80397;BME280;69721;55.894;-3.052;2024-03-02T05:26:39;98766.21;;;3.59;55.88
80397;BME280;69721;55.894;-3.052;2024-03-02T05:31:30;98757.39;;;5.85;50.52
80397;BME280;69721;55.894;-3.052;2024-03-02T05:33:56;98769.60;;;4.36;52.85
80397;BME280;69721;55.894;-3.052;2024-03-02T05:36:21;98771.71;;;4.40;53.87
80397;BME280;69721;55.894;-3.052;2024-03-02T05:41:13;98766.67;;;6.60;47.93
80397;BME280;69721;55.894;-3.052;2024-03-02T05:43:38;98772.27;;;5.09;48.44
80397;BME280;69721;55.894;-3.052;2024-03-02T05:46:04;98769.74;;;5.31;48.67
80397;BME280;69721;55.894;-3.052;2024-03-02T05:48:30;98778.13;;;5.05;50.52
80397;BME280;69721;55.894;-3.052;2024-03-02T05:50:55;98777.03;;;5.96;48.89
80397;BME280;69721;55.894;-3.052;2024-03-02T05:53:21;98777.08;;;6.53;47.97
80397;BME280;69721;55.894;-3.052;2024-03-02T05:55:46;98777.05;;;6.09;47.68
80397;BME280;69721;55.894;-3.052;2024-03-02T05:58:12;98780.42;;;5.78;48.49
80397;BME280;69721;55.894;-3.052;2024-03-02T06:00:37;98781.15;;;5.73;48.72
80397;BME280;69721;55.894;-3.052;2024-03-02T06:03:04;98783.82;;;5.72;48.35
80397;BME280;69721;55.894;-3.052;2024-03-02T06:05:29;98790.53;;;5.63;49.11
80397;BME280;69721;55.894;-3.052;2024-03-02T06:07:54;98793.40;;;5.85;48.40
80397;BME280;69721;55.894;-3.052;2024-03-02T06:10:20;98797.44;;;6.29;48.17
80397;BME280;69721;55.894;-3.052;2024-03-02T06:12:46;98801.86;;;6.25;47.57
80397;BME280;69721;55.894;-3.052;2024-03-02T06:15:11;98804.62;;;6.23;47.02
80397;BME280;69721;55.894;-3.052;2024-03-02T06:17:37;98806.43;;;6.14;47.05
80397;BME280;69721;55.894;-3.052;2024-03-02T06:20:03;98809.62;;;5.98;47.71
80397;BME280;69721;55.894;-3.052;2024-03-02T06:22:29;98812.37;;;5.73;48.01
80397;BME280;69721;55.894;-3.052;2024-03-02T06:24:54;98816.15;;;5.54;48.35
80397;BME280;69721;55.894;-3.052;2024-03-02T06:27:20;98810.92;;;6.08;47.54
80397;BME280;69721;55.894;-3.052;2024-03-02T06:29:46;98815.63;;;6.02;47.24
80397;BME280;69721;55.894;-3.052;2024-03-02T06:32:11;98819.79;;;6.03;47.26
80397;BME280;69721;55.894;-3.052;2024-03-02T06:34:37;98826.13;;;5.05;48.78
80397;BME280;69721;55.894;-3.052;2024-03-02T06:37:02;98825.95;;;5.34;48.59
80397;BME280;69721;55.894;-3.052;2024-03-02T06:39:28;98827.53;;;5.47;48.78
80397;BME280;69721;55.894;-3.052;2024-03-02T06:41:53;98827.29;;;5.40;50.40
80397;BME280;69721;55.894;-3.052;2024-03-02T06:44:19;98818.18;;;6.01;47.30
80397;BME280;69721;55.894;-3.052;2024-03-02T06:46:45;98821.82;;;4.83;48.24
80397;BME280;69721;55.894;-3.052;2024-03-02T06:51:36;98819.76;;;5.86;47.13
80397;BME280;69721;55.894;-3.052;2024-03-02T06:54:01;98822.00;;;5.50;47.20
80397;BME280;69721;55.894;-3.052;2024-03-02T06:56:27;98825.27;;;5.97;47.21
80397;BME280;69721;55.894;-3.052;2024-03-02T06:58:53;98825.90;;;5.45;47.80
80397;BME280;69721;55.894;-3.052;2024-03-02T07:01:18;98824.06;;;4.88;47.84
80397;BME280;69721;55.894;-3.052;2024-03-02T07:03:44;98823.38;;;5.41;47.84
80397;BME280;69721;55.894;-3.052;2024-03-02T07:06:09;98822.82;;;5.82;47.24
80397;BME280;69721;55.894;-3.052;2024-03-02T07:08:35;98826.99;;;5.17;47.74
80397;BME280;69721;55.894;-3.052;2024-03-02T07:11:02;98830.95;;;4.86;48.14
80397;BME280;69721;55.894;-3.052;2024-03-02T07:13:27;98834.31;;;4.53;49.00
80397;BME280;69721;55.894;-3.052;2024-03-02T07:15:53;98833.90;;;4.73;48.92
80397;BME280;69721;55.894;-3.052;2024-03-02T07:18:18;98835.96;;;5.20;48.23
80397;BME280;69721;55.894;-3.052;2024-03-02T07:20:44;98838.61;;;5.43;47.67
80397;BME280;69721;55.894;-3.052;2024-03-02T07:23:10;98842.43;;;5.24;47.94
80397;BME280;69721;55.894;-3.052;2024-03-02T07:25:35;98838.03;;;4.89;48.19
80397;BME280;69721;55.894;-3.052;2024-03-02T07:28:01;98841.80;;;5.31;48.13
80397;BME280;69721;55.894;-3.052;2024-03-02T07:30:27;98849.01;;;5.23;48.24
80397;BME280;69721;55.894;-3.052;2024-03-02T07:32:52;98850.11;;;4.68;48.15
80397;BME280;69721;55.894;-3.052;2024-03-02T07:35:18;98850.24;;;4.74;48.42
80397;BME280;69721;55.894;-3.052;2024-03-02T07:37:44;98851.77;;;5.29;48.68
80397;BME280;69721;55.894;-3.052;2024-03-02T07:40:10;98855.21;;;4.85;48.29
80397;BME280;69721;55.894;-3.052;2024-03-02T07:42:35;98854.66;;;4.87;49.08
80397;BME280;69721;55.894;-3.052;2024-03-02T07:45:00;98855.95;;;4.84;48.42
80397;BME280;69721;55.894;-3.052;2024-03-02T07:47:25;98854.25;;;4.54;48.81
80397;BME280;69721;55.894;-3.052;2024-03-02T07:49:50;98858.95;;;5.14;48.28
80397;BME280;69721;55.894;-3.052;2024-03-02T07:52:15;98862.27;;;4.65;48.57
80397;BME280;69721;55.894;-3.052;2024-03-02T07:54:41;98866.73;;;5.15;48.29
80397;BME280;69721;55.894;-3.052;2024-03-02T07:57:06;98866.51;;;4.36;48.95
80397;BME280;69721;55.894;-3.052;2024-03-02T08:01:58;98869.75;;;4.75;49.35
80397;BME280;69721;55.894;-3.052;2024-03-02T08:04:23;98872.50;;;5.02;50.01
80397;BME280;69721;55.894;-3.052;2024-03-02T08:06:48;98871.06;;;5.47;49.40
80397;BME280;69721;55.894;-3.052;2024-03-02T08:09:14;98869.56;;;5.04;49.54
80397;BME280;69721;55.894;-3.052;2024-03-02T08:11:39;98871.06;;;5.78;49.45
80397;BME280;69721;55.894;-3.052;2024-03-02T08:14:05;98868.03;;;4.81;49.97
80397;BME280;69721;55.894;-3.052;2024-03-02T08:16:30;98868.32;;;5.61;49.68
80397;BME280;69721;55.894;-3.052;2024-03-02T08:18:55;98869.77;;;4.78;49.53
80397;BME280;69721;55.894;-3.052;2024-03-02T08:21:21;98872.96;;;4.14;52.32
80397;BME280;69721;55.894;-3.052;2024-03-02T08:23:46;98873.80;;;4.73;51.47
80397;BME280;69721;55.894;-3.052;2024-03-02T08:26:12;98877.21;;;4.65;51.19
80397;BME280;69721;55.894;-3.052;2024-03-02T08:28:37;98882.15;;;4.27;52.81
80397;BME280;69721;55.894;-3.052;2024-03-02T08:31:03;98880.69;;;4.70;52.91
80397;BME280;69721;55.894;-3.052;2024-03-02T08:33:28;98877.31;;;4.98;52.41
80397;BME280;69721;55.894;-3.052;2024-03-02T08:35:54;98874.92;;;4.86;51.76
80397;BME280;69721;55.894;-3.052;2024-03-02T08:38:20;98874.88;;;4.01;53.78
80397;BME280;69721;55.894;-3.052;2024-03-02T08:40:45;98872.53;;;4.43;53.72
80397;BME280;69721;55.894;-3.052;2024-03-02T08:43:11;98871.80;;;4.07;54.44
80397;BME280;69721;55.894;-3.052;2024-03-02T08:45:37;98867.06;;;4.71;52.48
80397;BME280;69721;55.894;-3.052;2024-03-02T08:48:03;98867.24;;;4.61;52.71
80397;BME280;69721;55.894;-3.052;2024-03-02T08:50:28;98867.68;;;3.86;53.74
80397;BME280;69721;55.894;-3.052;2024-03-02T08:52:53;98867.56;;;4.76;52.28
80397;BME280;69721;55.894;-3.052;2024-03-02T08:55:20;98871.77;;;5.12;52.30
80397;BME280;69721;55.894;-3.052;2024-03-02T08:57:45;98874.71;;;2.43;56.62
80397;BME280;69721;55.894;-3.052;2024-03-02T09:00:12;98869.16;;;4.54;53.63
80397;BME280;69721;55.894;-3.052;2024-03-02T09:02:37;98873.88;;;5.37;52.32
80397;BME280;69721;55.894;-3.052;2024-03-02T09:05:02;98872.91;;;4.73;53.63
80397;BME280;69721;55.894;-3.052;2024-03-02T09:10:07;98882.29;;;5.63;52.52
80397;BME280;69721;55.894;-3.052;2024-03-02T09:12:18;98875.34;;;6.56;51.17
80397;BME280;69721;55.894;-3.052;2024-03-02T09:14:44;98878.42;;;6.58;51.12
80397;BME280;69721;55.894;-3.052;2024-03-02T09:17:09;98877.31;;;6.10;50.59
80397;BME280;69721;55.894;-3.052;2024-03-02T09:19:34;98875.10;;;5.87;51.96
80397;BME280;69721;55.894;-3.052;2024-03-02T09:22:00;98876.27;;;5.03;52.93
80397;BME280;69721;55.894;-3.052;2024-03-02T09:24:25;98879.89;;;5.31;52.62
80397;BME280;69721;55.894;-3.052;2024-03-02T09:26:52;98881.61;;;5.23;52.85
80397;BME280;69721;55.894;-3.052;2024-03-02T09:29:17;98883.11;;;5.75;52.63
80397;BME280;69721;55.894;-3.052;2024-03-02T09:31:43;98881.01;;;6.19;52.19
80397;BME280;69721;55.894;-3.052;2024-03-02T09:34:08;98890.19;;;5.57;52.45
80397;BME280;69721;55.894;-3.052;2024-03-02T09:36:33;98892.80;;;5.14;52.96
80397;BME280;69721;55.894;-3.052;2024-03-02T09:38:59;98892.07;;;4.87;54.26
80397;BME280;69721;55.894;-3.052;2024-03-02T09:41:25;98886.54;;;6.49;51.54
80397;BME280;69721;55.894;-3.052;2024-03-02T09:43:51;98888.08;;;6.46;50.70
80397;BME280;69721;55.894;-3.052;2024-03-02T09:46:16;98895.21;;;5.72;53.35
80397;BME280;69721;55.894;-3.052;2024-03-02T09:48:41;98889.78;;;6.35;51.87
80397;BME280;69721;55.894;-3.052;2024-03-02T09:51:07;98887.99;;;6.82;50.51
80397;BME280;69721;55.894;-3.052;2024-03-02T09:53:33;98895.71;;;5.69;52.46
80397;BME280;69721;55.894;-3.052;2024-03-02T09:55:59;98895.84;;;6.91;50.55
80397;BME280;69721;55.894;-3.052;2024-03-02T09:58:24;98897.13;;;7.05;51.11
80397;BME280;69721;55.894;-3.052;2024-03-02T10:00:49;98896.59;;;8.43;49.38
80397;BME280;69721;55.894;-3.052;2024-03-02T10:03:15;98899.05;;;8.26;48.61
80397;BME280;69721;55.894;-3.052;2024-03-02T10:05:41;98901.34;;;7.07;49.74
80397;BME280;69721;55.894;-3.052;2024-03-02T10:08:07;98899.76;;;6.24;52.27
80397;BME280;69721;55.894;-3.052;2024-03-02T10:10:37;98896.70;;;8.48;49.20
80397;BME280;69721;55.894;-3.052;2024-03-02T10:13:04;98900.22;;;7.91;48.59
80397;BME280;69721;55.894;-3.052;2024-03-02T10:15:24;98903.54;;;6.17;51.00
80397;BME280;69721;55.894;-3.052;2024-03-02T10:20:23;98899.34;;;7.88;49.91
80397;BME280;69721;55.894;-3.052;2024-03-02T10:22:40;98894.39;;;7.99;48.59
80397;BME280;69721;55.894;-3.052;2024-03-02T10:25:06;98892.98;;;8.22;48.61
80397;BME280;69721;55.894;-3.052;2024-03-02T10:27:34;98896.65;;;6.57;50.27
80397;BME280;69721;55.894;-3.052;2024-03-02T10:29:57;98897.06;;;8.93;49.88
80397;BME280;69721;55.894;-3.052;2024-03-02T10:32:22;98896.88;;;8.93;47.59
80397;BME280;69721;55.894;-3.052;2024-03-02T10:34:50;98896.36;;;8.16;48.59
80397;BME280;69721;55.894;-3.052;2024-03-02T10:37:15;98897.18;;;7.46;50.47
80397;BME280;69721;55.894;-3.052;2024-03-02T10:39:40;98900.56;;;8.18;48.49
80397;BME280;69721;55.894;-3.052;2024-03-02T10:42:07;98904.69;;;7.98;48.57
80397;BME280;69721;55.894;-3.052;2024-03-02T10:44:31;98905.82;;;8.35;49.58
80397;BME280;69721;55.894;-3.052;2024-03-02T10:46:56;98910.84;;;7.65;50.16
80397;BME280;69721;55.894;-3.052;2024-03-02T10:49:22;98908.77;;;8.49;49.29
80397;BME280;69721;55.894;-3.052;2024-03-02T10:51:47;98913.33;;;6.70;53.16
80397;BME280;69721;55.894;-3.052;2024-03-02T10:54:13;98918.08;;;6.49;52.62
80397;BME280;69721;55.894;-3.052;2024-03-02T10:56:40;98917.87;;;6.96;52.12
80397;BME280;69721;55.894;-3.052;2024-03-02T10:59:08;98921.24;;;6.76;51.67
80397;BME280;69721;55.894;-3.052;2024-03-02T11:01:31;98923.28;;;6.82;53.81
80397;BME280;69721;55.894;-3.052;2024-03-02T11:03:55;98925.29;;;5.90;54.40
80397;BME280;69721;55.894;-3.052;2024-03-02T11:06:21;98930.92;;;3.78;60.49
80397;BME280;69721;55.894;-3.052;2024-03-02T11:08:50;98929.39;;;5.62;57.43
80397;BME280;69721;55.894;-3.052;2024-03-02T11:11:15;98933.22;;;5.11;58.23
80397;BME280;69721;55.894;-3.052;2024-03-02T11:13:37;98928.90;;;6.14;56.43
80397;BME280;69721;55.894;-3.052;2024-03-02T11:16:07;98935.86;;;4.88;57.96
80397;BME280;69721;55.894;-3.052;2024-03-02T11:18:28;98931.62;;;5.62;57.26
80397;BME280;69721;55.894;-3.052;2024-03-02T11:20:53;98931.27;;;5.61;57.17
80397;BME280;69721;55.894;-3.052;2024-03-02T11:23:18;98936.04;;;5.51;57.70
80397;BME280;69721;55.894;-3.052;2024-03-02T11:25:43;98935.20;;;5.80;57.99
80397;BME280;69721;55.894;-3.052;2024-03-02T11:30:49;98930.71;;;5.60;57.28
80397;BME280;69721;55.894;-3.052;2024-03-02T11:33:00;98932.08;;;5.62;57.99
80397;BME280;69721;55.894;-3.052;2024-03-02T11:35:26;98925.18;;;6.14;57.80
80397;BME280;69721;55.894;-3.052;2024-03-02T11:37:51;98917.93;;;7.56;51.98
80397;BME280;69721;55.894;-3.052;2024-03-02T11:40:24;98916.12;;;8.85;50.56
80397;BME280;69721;55.894;-3.052;2024-03-02T11:42:43;98918.12;;;7.62;52.85
80397;BME280;69721;55.894;-3.052;2024-03-02T11:45:15;98924.45;;;9.33;49.88
80397;BME280;69721;55.894;-3.052;2024-03-02T11:47:33;98926.70;;;8.02;51.39
80397;BME280;69721;55.894;-3.052;2024-03-02T11:49:59;98928.42;;;7.73;52.85
80397;BME280;69721;55.894;-3.052;2024-03-02T11:52:26;98923.35;;;9.28;49.86
80397;BME280;69721;55.894;-3.052;2024-03-02T11:54:50;98927.14;;;8.54;51.40
80397;BME280;69721;55.894;-3.052;2024-03-02T11:57:16;98929.48;;;8.08;51.99
80397;BME280;69721;55.894;-3.052;2024-03-02T11:59:40;98930.16;;;9.07;48.95
80397;BME280;69721;55.894;-3.052;2024-03-02T12:02:06;98937.56;;;8.66;51.09
80397;BME280;69721;55.894;-3.052;2024-03-02T12:04:31;98939.49;;;7.64;50.98
80397;BME280;69721;55.894;-3.052;2024-03-02T12:06:58;98939.97;;;9.99;48.73
80397;BME280;69721;55.894;-3.052;2024-03-02T12:09:22;98940.64;;;8.62;50.97
80397;BME280;69721;55.894;-3.052;2024-03-02T12:11:47;98940.37;;;6.88;53.32
80397;BME280;69721;55.894;-3.052;2024-03-02T12:14:13;98933.01;;;7.81;51.11
80397;BME280;69721;55.894;-3.052;2024-03-02T12:16:38;98944.26;;;5.81;55.25
80397;BME280;69721;55.894;-3.052;2024-03-02T12:19:03;98954.16;;;4.82;59.18
80397;BME280;69721;55.894;-3.052;2024-03-02T12:21:29;98954.24;;;5.11;59.77
80397;BME280;69721;55.894;-3.052;2024-03-02T12:23:55;98950.18;;;5.70;57.74
80397;BME280;69721;55.894;-3.052;2024-03-02T12:26:20;98946.67;;;6.23;56.78
80397;BME280;69721;55.894;-3.052;2024-03-02T12:28:46;98943.66;;;6.01;57.21
80397;BME280;69721;55.894;-3.052;2024-03-02T12:31:11;98944.45;;;6.02;57.38
80397;BME280;69721;55.894;-3.052;2024-03-02T12:33:37;98946.61;;;5.64;58.22
80397;BME280;69721;55.894;-3.052;2024-03-02T12:36:03;98944.06;;;5.37;58.23
80397;BME280;69721;55.894;-3.052;2024-03-02T12:40:53;98939.13;;;7.51;54.99
80397;BME280;69721;55.894;-3.052;2024-03-02T12:43:19;98941.64;;;7.35;54.01
80397;BME280;69721;55.894;-3.052;2024-03-02T12:45:44;98941.78;;;6.59;54.54
80397;BME280;69721;55.894;-3.052;2024-03-02T12:48:09;98939.29;;;6.48;55.56
80397;BME280;69721;55.894;-3.052;2024-03-02T12:50:35;98935.78;;;6.84;54.68
80397;BME280;69721;55.894;-3.052;2024-03-02T12:53:01;98936.54;;;6.41;57.11
80397;BME280;69721;55.894;-3.052;2024-03-02T12:55:26;98933.75;;;7.40;54.09
80397;BME280;69721;55.894;-3.052;2024-03-02T12:57:51;98929.40;;;6.50;54.33
80397;BME280;69721;55.894;-3.052;2024-03-02T13:00:21;98932.58;;;6.96;53.91
80397;BME280;69721;55.894;-3.052;2024-03-02T13:02:42;98933.31;;;6.67;55.49
80397;BME280;69721;55.894;-3.052;2024-03-02T13:05:08;98940.92;;;5.79;57.26
80397;BME280;69721;55.894;-3.052;2024-03-02T13:07:33;98935.95;;;7.17;54.84
80397;BME280;69721;55.894;-3.052;2024-03-02T13:09:59;98947.35;;;5.16;57.18
80397;BME280;69721;55.894;-3.052;2024-03-02T13:12:24;98950.47;;;5.03;58.84
80397;BME280;69721;55.894;-3.052;2024-03-02T13:14:51;98951.20;;;5.17;59.62
80397;BME280;69721;55.894;-3.052;2024-03-02T13:17:15;98951.95;;;5.89;59.64
80397;BME280;69721;55.894;-3.052;2024-03-02T13:19:51;98949.56;;;6.13;57.94